Pagrindinis puslapis
METAR-TAF:

METAR-TAF

Oro uostai :

Labuan, Malaizija

platuma: 05-18N, ilguma: 115-15E, Aukštis: 30 m

Dabartinis oras

Ataskaita buvo paskelbta 57 minutes, ne 07:00 UTC
Vėjas 10 kt iš Šiaurės/Šiaurės Rytų, svyruoja nuo Vakarų ir Rytų/Šiaurės Rytų
Temperatūra 29°C
Drėgmė 74%
Slėgis 1009 hPa
Matomumas 10 km arba daugiau
Mažai debesys ne aukštis 1800 ft
Su prošvaistėmis ne aukštis 30000 ft

METAR: WBKL 230700Z 02010KT 280V070 9999 FEW018 BKN300 29/24 Q1009

Laikas: 15:57 (07:57 UTC)

Prognozė

Ataskaita buvo paskelbta 2 valandos ir 57 minutes, ne 05:00 UTC
Prognozė galioja nuo 23 metu 06 UTC su 24 metu 06 UTC
Vėjas 10 kt iš Šiaurės Rytų
Matomumas 10 km arba daugiau
Mažai debesys ne aukštis 1800 ft

TAF: WBKL 230500Z 2306/2406 04010KT 9999 FEW018

Orai ataskaitas ir orų prognozės (METAR, TAF).

turimą stotys yra geltonos ir raudonos taškus žemėlapyje.

Perkelti pele per norėdami pamatyti stoties vardą.

Tada spustelėkite, norėdami matyti oro stebėjimo ir prognozės.

Norėdami pakeisti žemėlapį: spustelėkite ant žalios mygtukų su juodo kryžiaus žemyn,; žalią mygtuką su brūkšneliu, jei norite nutolinti; arba žalių rodyklių gretimoms žemėlapius.


METAR-TAF: